In Rescue
 
Open Full Screen Window  High Contrast Mode
Wind Gusting 00 knots
06
March 31, 2020 3:06 PM CDT
Weather Information
Wind Direction
  090 °
Wind Speed
  06 kt (7 mph)
Wind Gust
  00 kt (0 mph)
Altimeter
30.04 in
Visibility
10 SM
Temperature
12° C
54° F
Dewpoint
-11° C
12° F
Humidity
19%
1hr Rain Fall
00.00 in.
24hr Rain Fall
00.00 in.
Sky Condition
Clear
VFR

METAR KGYL 312006Z AUTO 09006KT 10SM CLR 12/M11 A3004 RMK AO2 T01181113

FAA Disclaimer: The data displayed is for advisory purposes only and is not to be used for flight planning or operations.